Time;durP1;ratioP1;P1;durP2;ratioP2;P2;SDS_P1;SDS_P2;PMS_P1;PMS_P2;Temp;Humidity;BMP_temperature;BMP_pressure;BME280_temperature;BME280_humidity;BME280_pressure;Samples;Min_cycle;Max_cycle;Signal;HPM_P1;HPM_P2
2021/09/25 00:00:26;;;;;;;14.52;10.50;;;17.80;99.90;;;;;;2619632;47;20184;-73
2021/09/25 00:02:55;;;;;;;11.50;10.23;;;17.80;99.90;;;;;;2620298;47;20153;-74
2021/09/25 00:05:27;;;;;;;12.07;9.80;;;17.80;99.90;;;;;;2619313;54;20152;-73
2021/09/25 00:07:56;;;;;;;15.88;10.43;;;17.70;99.90;;;;;;2619844;54;20200;-73
2021/09/25 00:10:26;;;;;;;11.88;10.68;;;17.70;99.90;;;;;;2619934;46;20177;-73
2021/09/25 00:12:56;;;;;;;12.55;11.30;;;17.70;99.90;;;;;;2619912;47;20153;-74
2021/09/25 00:15:29;;;;;;;11.38;10.15;;;17.60;99.90;;;;;;2619707;54;20161;-73
2021/09/25 00:17:58;;;;;;;11.00;9.90;;;17.60;99.90;;;;;;2619804;47;20157;-73
2021/09/25 00:20:30;;;;;;;10.75;9.70;;;17.60;99.90;;;;;;2619919;54;20159;-73
2021/09/25 00:22:59;;;;;;;12.77;11.48;;;17.60;99.90;;;;;;2620024;54;20149;-73
2021/09/25 00:25:28;;;;;;;16.33;13.48;;;17.60;99.90;;;;;;2619288;47;20701;-74
2021/09/25 00:28:04;;;;;;;13.00;11.70;;;17.60;99.90;;;;;;2619219;47;20180;-73
2021/09/25 00:30:33;;;;;;;11.73;10.50;;;17.70;99.90;;;;;;2619724;39;20568;-73
2021/09/25 00:33:02;;;;;;;14.00;12.57;;;17.60;99.90;;;;;;2619452;54;20157;-74
2021/09/25 00:35:33;;;;;;;13.43;12.10;;;17.60;99.90;;;;;;2619152;54;20154;-73
2021/09/25 00:38:02;;;;;;;13.38;11.35;;;17.60;99.90;;;;;;2619773;47;20160;-73
2021/09/25 00:40:31;;;;;;;14.13;11.73;;;17.70;99.90;;;;;;2619345;54;20169;-73
2021/09/25 00:43:00;;;;;;;15.20;12.25;;;17.70;99.90;;;;;;2619259;47;20663;-73
2021/09/25 00:45:29;;;;;;;15.50;11.57;;;17.70;99.90;;;;;;2619464;47;20169;-73
2021/09/25 00:47:58;;;;;;;14.00;11.88;;;17.60;99.90;;;;;;2618376;54;20164;-74
2021/09/25 00:50:29;;;;;;;16.20;13.63;;;17.60;99.90;;;;;;2619456;47;20184;-74
2021/09/25 00:53:01;;;;;;;14.00;12.55;;;17.60;99.90;;;;;;2619574;54;20185;-73
2021/09/25 00:55:30;;;;;;;15.55;14.07;;;17.60;99.90;;;;;;2619258;46;20716;-73
2021/09/25 00:58:01;;;;;;;14.73;13.35;;;17.60;99.90;;;;;;2619207;47;20180;-73
2021/09/25 01:00:31;;;;;;;16.33;14.80;;;17.60;99.90;;;;;;2619568;54;20186;-73
2021/09/25 01:03:00;;;;;;;17.38;15.88;;;17.60;99.90;;;;;;2619496;54;20142;-73
2021/09/25 01:05:29;;;;;;;18.67;16.77;;;17.50;99.90;;;;;;2619747;39;20586;-73
2021/09/25 01:08:01;;;;;;;19.35;16.00;;;17.50;99.90;;;;;;2619097;51;20304;-73
2021/09/25 01:10:30;;;;;;;17.58;15.77;;;17.50;99.90;;;;;;2619377;54;20180;-74
2021/09/25 01:12:59;;;;;;;18.83;16.42;;;17.70;99.90;;;;;;2619362;54;20160;-73
2021/09/25 01:15:28;;;;;;;18.35;16.75;;;17.70;99.90;;;;;;2619066;47;20161;-74
2021/09/25 01:17:57;;;;;;;18.92;16.92;;;17.70;99.90;;;;;;2619340;54;20153;-75
2021/09/25 01:20:26;;;;;;;16.73;15.35;;;17.70;99.90;;;;;;2618881;54;20702;-74
2021/09/25 01:22:57;;;;;;;17.58;15.88;;;17.60;99.90;;;;;;2618528;47;20152;-74
2021/09/25 01:25:26;;;;;;;17.75;16.10;;;17.70;99.90;;;;;;2619382;47;20200;-73
2021/09/25 01:27:55;;;;;;;18.35;16.73;;;17.60;99.90;;;;;;2619387;39;20575;-74
2021/09/25 01:30:24;;;;;;;17.73;16.10;;;17.60;99.90;;;;;;2621178;39;20606;-73
2021/09/25 01:32:55;;;;;;;17.65;15.93;;;17.60;99.90;;;;;;2619326;47;20145;-74
2021/09/25 01:35:25;;;;;;;17.80;15.98;;;17.70;99.90;;;;;;2619825;54;20161;-74
2021/09/25 01:37:58;;;;;;;18.38;15.55;;;17.70;99.90;;;;;;2619195;54;20222;-73
2021/09/25 01:40:27;;;;;;;18.67;17.05;;;17.70;99.90;;;;;;2618641;54;20181;-73
2021/09/25 01:42:56;;;;;;;15.63;14.10;;;17.60;99.90;;;;;;2619856;46;20172;-74
2021/09/25 01:45:25;;;;;;;17.58;15.73;;;17.50;99.90;;;;;;2619250;54;20213;-73
2021/09/25 01:47:55;;;;;;;17.90;16.17;;;17.60;99.90;;;;;;2619574;54;20161;-73
2021/09/25 01:50:24;;;;;;;17.63;15.90;;;17.60;99.90;;;;;;2619212;54;20272;-73
2021/09/25 01:52:53;;;;;;;18.83;15.73;;;17.60;99.90;;;;;;2619081;54;20153;-74
2021/09/25 01:55:24;;;;;;;17.85;16.23;;;17.60;99.90;;;;;;2619089;47;20161;-73
2021/09/25 01:57:53;;;;;;;17.33;15.50;;;17.70;99.90;;;;;;2618608;47;20157;-74
2021/09/25 02:00:24;;;;;;;18.70;17.00;;;17.70;99.90;;;;;;2618327;47;20184;-74
2021/09/25 02:02:53;;;;;;;17.15;15.55;;;17.70;99.90;;;;;;2617606;54;20158;-72
2021/09/25 02:05:23;;;;;;;18.50;16.70;;;17.70;99.90;;;;;;2618900;47;20153;-73
2021/09/25 02:07:52;;;;;;;18.30;16.63;;;17.70;99.90;;;;;;2618997;47;20157;-73
2021/09/25 02:10:24;;;;;;;18.83;17.20;;;17.70;99.90;;;;;;2619195;54;20183;-73
2021/09/25 02:12:52;;;;;;;19.92;18.08;;;17.70;99.90;;;;;;2619228;54;20148;-74
2021/09/25 02:15:22;;;;;;;19.15;17.27;;;17.70;99.90;;;;;;2618927;47;20164;-73
2021/09/25 02:17:51;;;;;;;19.10;17.35;;;17.70;99.90;;;;;;2619210;47;20149;-73
2021/09/25 02:20:21;;;;;;;18.70;17.10;;;17.70;99.90;;;;;;2618949;54;20713;-73
2021/09/25 02:22:50;;;;;;;19.77;17.98;;;17.70;99.90;;;;;;2619206;47;20145;-74
2021/09/25 02:25:19;;;;;;;22.30;20.13;;;17.70;99.90;;;;;;2618835;47;20236;-73
2021/09/25 02:27:51;;;;;;;20.55;18.52;;;17.60;99.90;;;;;;2619058;47;20156;-73
2021/09/25 02:30:22;;;;;;;21.83;19.70;;;17.60;99.90;;;;;;2618895;39;20584;-73
2021/09/25 02:32:51;;;;;;;22.33;20.25;;;17.50;99.90;;;;;;2619305;47;20184;-74
2021/09/25 02:35:22;;;;;;;21.85;20.08;;;17.60;99.90;;;;;;2619083;47;20161;-72
2021/09/25 02:37:52;;;;;;;22.88;20.92;;;17.60;99.90;;;;;;2619247;47;20146;-75
2021/09/25 02:40:23;;;;;;;20.30;18.52;;;17.50;99.90;;;;;;2619431;47;20177;-73
2021/09/25 02:42:55;;;;;;;21.88;19.70;;;17.60;99.90;;;;;;2618990;47;20671;-73
2021/09/25 02:45:24;;;;;;;23.05;20.88;;;17.50;99.90;;;;;;2619425;39;20847;-73
2021/09/25 02:47:52;;;;;;;24.10;21.90;;;17.50;99.90;;;;;;2618349;47;20156;-73
2021/09/25 02:50:22;;;;;;;22.83;20.67;;;17.60;99.90;;;;;;2618966;54;20195;-72
2021/09/25 02:52:51;;;;;;;20.92;19.20;;;17.60;99.90;;;;;;2619229;47;20157;-73
2021/09/25 02:55:19;;;;;;;22.73;20.60;;;17.50;99.90;;;;;;2618827;47;20180;-73
2021/09/25 02:57:49;;;;;;;20.83;18.88;;;17.60;99.90;;;;;;2619136;47;20156;-73
2021/09/25 03:00:22;;;;;;;20.63;18.27;;;17.50;99.90;;;;;;2619232;54;20719;-73
2021/09/25 03:02:51;;;;;;;22.63;20.58;;;17.60;99.90;;;;;;2618846;47;20153;-73
2021/09/25 03:05:20;;;;;;;21.80;19.90;;;17.60;99.90;;;;;;2618921;54;20161;-73
2021/09/25 03:07:49;;;;;;;19.20;17.63;;;17.60;99.90;;;;;;2618967;47;20157;-73
2021/09/25 03:10:18;;;;;;;21.08;18.88;;;17.60;99.90;;;;;;2618917;47;20181;-73
2021/09/25 03:12:47;;;;;;;19.02;17.42;;;17.60;99.90;;;;;;2618522;47;20679;-73
2021/09/25 03:15:16;;;;;;;19.63;17.92;;;17.60;99.90;;;;;;2618350;54;20164;-73
2021/09/25 03:17:48;;;;;;;20.17;18.40;;;17.60;99.90;;;;;;2618362;47;20168;-73
2021/09/25 03:20:17;;;;;;;20.17;18.23;;;17.50;99.90;;;;;;2618706;47;20231;-73
2021/09/25 03:22:45;;;;;;;19.05;17.45;;;17.60;99.90;;;;;;2621712;47;20149;-73
2021/09/25 03:25:15;;;;;;;18.92;17.20;;;17.60;99.90;;;;;;2627163;47;20308;-73
2021/09/25 03:27:45;;;;;;;19.00;17.02;;;17.50;99.90;;;;;;2623309;47;20145;-73
2021/09/25 03:30:15;;;;;;;18.50;16.83;;;17.60;99.90;;;;;;2619279;39;20614;-74
2021/09/25 03:32:46;;;;;;;18.58;16.88;;;17.50;99.90;;;;;;2618751;47;20137;-73
2021/09/25 03:35:15;;;;;;;19.40;17.63;;;17.50;99.90;;;;;;2618960;54;20695;-74
2021/09/25 03:37:45;;;;;;;23.85;21.75;;;17.60;99.90;;;;;;2619118;47;20145;-75
2021/09/25 03:40:15;;;;;;;28.95;26.27;;;17.60;99.90;;;;;;2619029;54;20197;-74
2021/09/25 03:42:44;;;;;;;27.58;24.98;;;17.50;99.90;;;;;;2618367;47;20161;-74
2021/09/25 03:45:14;;;;;;;28.13;25.40;;;17.50;99.90;;;;;;2618066;54;20129;-74
2021/09/25 03:47:43;;;;;;;27.50;24.77;;;17.40;99.90;;;;;;2618364;47;20150;-74
2021/09/25 03:50:15;;;;;;;30.83;27.77;;;17.50;99.90;;;;;;2618528;54;20184;-74
2021/09/25 03:52:44;;;;;;;27.58;24.90;;;17.30;99.90;;;;;;2618082;54;20149;-74
2021/09/25 03:55:13;;;;;;;28.58;26.08;;;17.30;99.90;;;;;;2618073;54;20149;-73
2021/09/25 03:57:42;;;;;;;28.23;25.63;;;17.30;99.90;;;;;;2618206;47;20679;-74
2021/09/25 04:00:12;;;;;;;29.15;26.27;;;17.20;99.90;;;;;;2618619;54;20659;-73
2021/09/25 04:02:41;;;;;;;29.30;26.48;;;17.20;99.90;;;;;;2618221;47;20153;-73
2021/09/25 04:05:12;;;;;;;31.65;28.40;;;17.20;99.90;;;;;;2619270;47;20272;-73
2021/09/25 04:07:43;;;;;;;28.17;25.35;;;17.10;99.90;;;;;;2619236;49;20156;-73
2021/09/25 11:08:50;;;;;;;;;;;17.10;99.90;;;;;;769110;54;3742059769;31
2021/09/25 11:11:37;;;;;;;4.90;4.07;;;21.60;99.90;;;;;;2622638;47;20177;-73
2021/09/25 11:14:28;;;;;;;6.22;3.80;;;21.80;99.90;;;;;;2617190;47;20153;-73
2021/09/25 11:17:12;;;;;;;5.75;4.07;;;22.10;99.90;;;;;;2617908;54;20707;-75
2021/09/25 11:19:54;;;;;;;3.60;3.30;;;22.20;99.90;;;;;;2617621;47;20176;-74
2021/09/25 11:22:33;;;;;;;3.55;3.22;;;22.50;99.90;;;;;;2617441;47;20152;-73
2021/09/25 11:25:05;;;;;;;4.10;3.50;;;22.90;99.90;;;;;;2617457;54;20981;-73
2021/09/25 11:27:38;;;;;;;4.55;3.80;;;23.10;99.90;;;;;;2617437;54;20685;-73
2021/09/25 11:30:14;;;;;;;4.93;4.30;;;23.40;99.90;;;;;;2617656;54;20722;-73
2021/09/25 11:32:46;;;;;;;4.63;3.03;;;23.40;99.90;;;;;;2617541;47;20160;-72
2021/09/25 11:35:18;;;;;;;3.50;2.85;;;23.50;99.90;;;;;;2617219;54;20148;-74
2021/09/25 11:37:53;;;;;;;4.55;3.63;;;23.90;99.90;;;;;;2617481;54;20228;-73
2021/09/25 11:40:24;;;;;;;3.50;3.17;;;23.90;99.90;;;;;;2617445;54;20683;-73
2021/09/25 11:43:01;;;;;;;5.35;3.45;;;23.70;99.90;;;;;;2617723;54;20153;-73
2021/09/25 11:45:33;;;;;;;4.18;3.70;;;23.20;99.90;;;;;;2617490;47;20137;-74
2021/09/25 11:48:05;;;;;;;6.13;3.95;;;23.10;99.90;;;;;;2617287;54;20161;-73
2021/09/25 11:50:35;;;;;;;4.35;3.90;;;22.80;99.90;;;;;;2617638;54;20167;-73
2021/09/25 11:53:06;;;;;;;3.72;3.42;;;22.50;99.90;;;;;;2617743;47;20173;-73
2021/09/25 11:55:37;;;;;;;4.43;3.67;;;22.40;99.90;;;;;;2617479;54;20153;-73
2021/09/25 11:58:10;;;;;;;3.95;3.65;;;22.30;99.90;;;;;;2617462;54;20189;-73
2021/09/25 12:00:41;;;;;;;3.30;2.80;;;22.50;99.90;;;;;;2617241;47;20169;-73
2021/09/25 12:03:11;;;;;;;4.75;3.60;;;22.50;99.90;;;;;;2617449;47;20141;-73
2021/09/25 12:05:43;;;;;;;5.90;3.67;;;22.50;99.90;;;;;;2617433;54;20140;-73
2021/09/25 12:08:13;;;;;;;3.30;3.10;;;22.40;99.90;;;;;;2617541;47;20149;-73
2021/09/25 12:10:44;;;;;;;3.25;2.90;;;22.50;99.90;;;;;;2617460;47;20177;-74
2021/09/25 12:13:19;;;;;;;4.93;3.50;;;22.80;99.90;;;;;;2617287;47;20164;-74
2021/09/25 12:15:50;;;;;;;4.22;3.13;;;22.70;99.90;;;;;;2617111;47;20184;-73
2021/09/25 12:18:29;;;;;;;4.80;4.25;;;22.70;99.90;;;;;;2617110;47;20149;-74
2021/09/25 12:21:00;;;;;;;5.60;3.30;;;22.70;99.90;;;;;;2617143;54;20180;-73
2021/09/25 12:23:33;;;;;;;4.47;3.38;;;22.80;99.90;;;;;;2617185;54;20705;-73
2021/09/25 12:26:03;;;;;;;4.00;2.95;;;22.80;99.90;;;;;;2618021;54;20157;-73
2021/09/25 12:28:48;;;;;;;4.60;4.20;;;22.80;99.90;;;;;;2617928;47;20146;-73
2021/09/25 12:31:23;;;;;;;2.78;2.55;;;23.10;99.90;;;;;;2618298;39;20523;-73
2021/09/25 12:33:55;;;;;;;3.88;2.67;;;23.50;99.90;;;;;;2617721;47;20161;-74
2021/09/25 12:36:27;;;;;;;3.47;3.17;;;23.70;99.90;;;;;;2618120;39;20555;-72
2021/09/25 12:38:57;;;;;;;5.38;3.30;;;23.60;99.90;;;;;;2617954;47;20272;-73
2021/09/25 12:41:26;;;;;;;5.38;4.72;;;23.50;99.90;;;;;;2617743;47;20153;-72
2021/09/25 12:43:59;;;;;;;3.90;3.15;;;23.70;99.90;;;;;;2617540;54;20152;-73
2021/09/25 12:46:30;;;;;;;5.07;2.95;;;23.70;99.90;;;;;;2617676;46;20137;-73
2021/09/25 12:49:13;;;;;;;5.53;3.83;;;24.00;99.90;;;;;;2617740;47;20173;-74
2021/09/25 12:51:47;;;;;;;2.80;2.50;;;24.40;99.90;;;;;;2624271;47;20192;-73
2021/09/25 12:54:18;;;;;;;4.53;3.15;;;24.10;99.90;;;;;;2619108;47;20145;-72
2021/09/25 12:56:48;;;;;;;3.10;2.70;;;24.50;99.90;;;;;;2617858;47;20156;-73
2021/09/25 12:59:23;;;;;;;2.65;2.38;;;24.80;99.90;;;;;;2620096;47;20175;-75
2021/09/25 13:01:54;;;;;;;3.92;3.17;;;24.90;99.90;;;;;;2621507;39;20626;-76
2021/09/25 13:04:26;;;;;;;2.92;2.30;;;24.70;99.90;;;;;;2620931;47;20150;-76
2021/09/25 13:06:57;;;;;;;4.28;2.70;;;24.90;99.90;;;;;;2619595;54;20150;-74
2021/09/25 13:09:27;;;;;;;3.35;2.85;;;25.30;99.90;;;;;;2619543;54;20172;-75
2021/09/25 13:12:10;;;;;;;2.70;2.50;;;25.20;99.90;;;;;;2620540;47;20141;-75
2021/09/25 13:14:42;;;;;;;2.78;2.58;;;25.20;99.90;;;;;;2620173;54;20229;-75
2021/09/25 13:17:11;;;;;;;3.92;2.10;;;24.60;99.90;;;;;;2620057;47;20168;-76
2021/09/25 13:19:40;;;;;;;4.93;4.32;;;24.70;99.90;;;;;;2620379;54;20149;-74
2021/09/25 13:22:12;;;;;;;4.55;4.15;;;24.90;99.90;;;;;;2619837;39;20507;-75
2021/09/25 13:24:42;;;;;;;2.40;2.20;;;24.90;99.90;;;;;;2622248;31;20624;-74
2021/09/25 13:27:13;;;;;;;3.20;2.10;;;25.20;99.90;;;;;;2619853;54;20161;-75
2021/09/25 13:29:44;;;;;;;3.33;2.70;;;25.40;99.90;;;;;;2619232;54;20265;-74
2021/09/25 13:32:14;;;;;;;4.57;3.30;;;25.60;99.90;;;;;;2620270;39;20549;-74
2021/09/25 13:34:43;;;;;;;4.40;2.53;;;25.50;99.90;;;;;;2617723;47;20153;-73
2021/09/25 13:37:12;;;;;;;3.20;2.90;;;25.40;99.90;;;;;;2617718;47;20164;-73
2021/09/25 13:39:41;;;;;;;2.95;2.63;;;25.60;99.90;;;;;;2617723;54;20149;-72
2021/09/25 13:42:10;;;;;;;2.33;2.13;;;25.30;99.90;;;;;;2618138;47;20145;-71
2021/09/25 13:44:42;;;;;;;3.08;2.25;;;25.30;99.90;;;;;;2617653;47;20145;-71
2021/09/25 13:47:13;;;;;;;8.60;3.25;;;25.30;99.90;;;;;;2618056;46;20149;-72
2021/09/25 13:49:44;;;;;;;3.22;2.80;;;25.20;99.90;;;;;;2617912;54;20168;-73
2021/09/25 13:52:13;;;;;;;4.30;2.88;;;24.90;99.90;;;;;;2617935;54;20149;-72
2021/09/25 13:54:43;;;;;;;6.82;3.10;;;24.60;99.90;;;;;;2617574;47;20742;-72
2021/09/25 13:57:12;;;;;;;5.55;4.90;;;24.30;99.90;;;;;;2617843;54;20153;-73
2021/09/25 13:59:42;;;;;;;4.57;3.00;;;24.20;99.90;;;;;;2617716;54;20177;-73
2021/09/25 14:02:14;;;;;;;3.40;2.63;;;24.50;99.90;;;;;;2617557;46;20154;-72
2021/09/25 14:04:43;;;;;;;2.72;2.50;;;25.10;99.90;;;;;;2618133;39;20548;-72
2021/09/25 14:07:12;;;;;;;4.28;2.58;;;25.00;99.90;;;;;;2618370;39;20583;-72
2021/09/25 14:09:41;;;;;;;5.15;2.97;;;24.80;99.90;;;;;;2617703;47;20165;-71
2021/09/25 14:12:11;;;;;;;4.70;3.53;;;24.70;99.90;;;;;;2616933;47;20145;-72
2021/09/25 14:14:40;;;;;;;3.35;2.90;;;24.60;99.90;;;;;;2617413;47;20245;-73
2021/09/25 14:17:10;;;;;;;3.80;3.22;;;24.40;99.90;;;;;;2618604;39;20587;-72
2021/09/25 14:19:41;;;;;;;2.75;2.55;;;24.60;99.90;;;;;;2625359;54;20221;-74
2021/09/25 14:22:10;;;;;;;2.22;2.13;;;25.20;99.90;;;;;;2622934;47;20179;-72
2021/09/25 14:24:39;;;;;;;2.72;2.22;;;26.70;99.90;;;;;;2617301;54;20711;-74
2021/09/25 14:27:08;;;;;;;4.03;2.33;;;27.20;99.90;;;;;;2618028;39;20593;-72
2021/09/25 14:29:37;;;;;;;3.08;2.13;;;27.50;99.90;;;;;;2617051;47;20200;-72
2021/09/25 14:32:07;;;;;;;4.28;2.63;;;26.80;99.90;;;;;;2617472;50;20153;-71
2021/09/25 14:34:36;;;;;;;4.22;2.92;;;26.10;99.90;;;;;;2617373;47;20161;-72
2021/09/25 14:37:07;;;;;;;3.38;3.08;;;25.40;99.90;;;;;;2617614;47;20153;-72
2021/09/25 14:39:37;;;;;;;3.13;2.85;;;25.20;99.90;;;;;;2617567;47;20176;-72
2021/09/25 14:42:07;;;;;;;4.50;3.50;;;24.80;99.90;;;;;;2617569;54;20161;-73
2021/09/25 14:44:37;;;;;;;3.65;3.03;;;24.30;99.90;;;;;;2617818;54;20149;-72
2021/09/25 14:47:07;;;;;;;5.38;3.65;;;23.70;99.90;;;;;;2618290;47;20152;-72
2021/09/25 14:49:36;;;;;;;4.97;3.85;;;23.50;99.90;;;;;;2618088;54;20191;-71
2021/09/25 14:52:10;;;;;;;4.55;3.38;;;23.50;99.90;;;;;;2617694;47;20163;-73
2021/09/25 14:54:38;;;;;;;3.60;3.30;;;23.50;99.90;;;;;;2616955;54;20160;-73
2021/09/25 14:57:08;;;;;;;2.70;2.45;;;23.40;99.90;;;;;;2617091;54;20156;-73
2021/09/25 14:59:37;;;;;;;3.60;3.17;;;23.50;99.90;;;;;;2618096;47;20165;-73
2021/09/25 15:02:06;;;;;;;4.00;3.13;;;23.20;99.90;;;;;;2618008;54;20157;-76
2021/09/25 15:04:35;;;;;;;6.65;3.60;;;23.00;99.90;;;;;;2618010;54;20261;-73
2021/09/25 15:07:04;;;;;;;3.47;3.17;;;22.70;99.90;;;;;;2617563;54;20153;-73
2021/09/25 15:09:36;;;;;;;6.68;3.40;;;22.60;99.90;;;;;;2618375;54;20168;-73
2021/09/25 15:12:05;;;;;;;4.05;3.72;;;22.50;99.90;;;;;;2618297;47;20160;-73
2021/09/25 15:14:34;;;;;;;3.40;3.15;;;22.50;99.90;;;;;;2618556;54;20154;-74
2021/09/25 15:17:03;;;;;;;4.28;3.17;;;22.60;99.90;;;;;;2618338;47;20168;-73
2021/09/25 15:19:32;;;;;;;3.70;3.05;;;22.60;99.90;;;;;;2618412;47;20169;-74
2021/09/25 15:22:01;;;;;;;3.70;3.40;;;22.70;99.90;;;;;;2618055;54;20161;-74
2021/09/25 15:24:30;;;;;;;4.28;3.88;;;22.60;99.90;;;;;;2617982;54;20153;-74
2021/09/25 15:27:01;;;;;;;5.72;3.53;;;22.60;99.90;;;;;;2617866;47;20156;-74
2021/09/25 15:29:30;;;;;;;4.15;3.45;;;22.50;99.90;;;;;;2618153;54;20711;-75
2021/09/25 15:32:00;;;;;;;4.60;3.55;;;22.50;99.90;;;;;;2619531;54;20145;-74
2021/09/25 15:34:29;;;;;;;3.75;3.33;;;22.50;99.90;;;;;;2617934;54;20229;-75
2021/09/25 15:36:58;;;;;;;3.65;3.35;;;22.50;99.90;;;;;;2618454;47;20161;-76
2021/09/25 15:39:27;;;;;;;4.70;4.05;;;22.30;99.90;;;;;;2620577;54;20180;-74
2021/09/25 15:41:56;;;;;;;4.45;4.05;;;22.30;99.90;;;;;;2618407;47;20153;-74
2021/09/25 15:44:27;;;;;;;5.95;3.75;;;22.10;99.90;;;;;;2618316;54;20142;-74
2021/09/25 15:46:56;;;;;;;5.00;3.92;;;22.20;99.90;;;;;;2620112;39;20539;-74
2021/09/25 15:49:25;;;;;;;7.18;4.63;;;22.20;99.90;;;;;;2618676;54;20165;-75
2021/09/25 15:51:54;;;;;;;4.68;3.92;;;22.20;99.90;;;;;;2618597;47;20141;-75
2021/09/25 15:54:24;;;;;;;5.65;3.85;;;22.00;99.90;;;;;;2619123;54;20153;-75
2021/09/25 15:56:53;;;;;;;5.32;3.67;;;22.00;99.90;;;;;;2618789;47;20734;-75
2021/09/25 15:59:23;;;;;;;3.80;3.50;;;22.20;99.90;;;;;;2619454;54;20168;-74
2021/09/25 16:01:54;;;;;;;5.90;4.07;;;22.30;99.90;;;;;;2618824;47;20295;-74
2021/09/25 16:04:27;;;;;;;4.80;4.28;;;22.40;99.90;;;;;;2619469;54;20154;-74
2021/09/25 16:06:56;;;;;;;4.38;3.97;;;22.40;99.90;;;;;;2619447;39;20531;-75
2021/09/25 16:09:27;;;;;;;4.35;3.70;;;22.40;99.90;;;;;;2619701;50;20185;-75
2021/09/25 16:11:57;;;;;;;4.57;4.18;;;22.60;99.90;;;;;;2619480;47;20153;-74
2021/09/25 16:14:27;;;;;;;4.88;3.72;;;22.60;99.90;;;;;;2618944;54;20149;-74
2021/09/25 16:16:58;;;;;;;4.68;4.28;;;22.40;99.90;;;;;;2619503;39;20551;-74
2021/09/25 16:19:27;;;;;;;4.78;4.38;;;22.30;99.90;;;;;;2619141;47;20173;-74
2021/09/25 16:22:03;;;;;;;4.60;4.20;;;22.20;99.90;;;;;;2618253;54;20241;-77
2021/09/25 16:24:32;;;;;;;4.22;3.72;;;22.20;99.90;;;;;;2625086;47;20762;-76
2021/09/25 16:27:02;;;;;;;4.47;3.55;;;22.00;99.90;;;;;;2620210;47;20160;-75
2021/09/25 16:29:32;;;;;;;3.83;3.55;;;21.80;99.90;;;;;;2620252;54;20177;-76
2021/09/25 16:32:05;;;;;;;5.07;4.57;;;21.80;99.90;;;;;;2619626;47;20161;-75
2021/09/25 16:34:34;;;;;;;5.00;3.88;;;21.80;99.90;;;;;;2622914;39;20540;-75
2021/09/25 16:37:03;;;;;;;6.70;4.60;;;21.60;99.90;;;;;;2620857;54;20189;-76
2021/09/25 16:39:32;;;;;;;5.00;4.50;;;21.40;99.90;;;;;;2620564;54;20225;-76
2021/09/25 16:42:01;;;;;;;5.40;4.90;;;21.20;99.90;;;;;;2620324;47;20153;-76
2021/09/25 16:44:30;;;;;;;4.95;4.50;;;21.20;99.90;;;;;;2621223;39;20693;-74
2021/09/25 16:46:59;;;;;;;5.07;4.68;;;21.20;99.90;;;;;;2621367;47;20152;-75
2021/09/25 16:49:30;;;;;;;5.28;4.78;;;21.20;99.90;;;;;;2620541;54;20219;-74
2021/09/25 16:51:59;;;;;;;6.10;4.32;;;21.10;99.90;;;;;;2617809;47;20158;-74
2021/09/25 16:54:28;;;;;;;4.80;4.25;;;21.10;99.90;;;;;;2620809;47;20148;-75
2021/09/25 16:56:57;;;;;;;6.63;5.10;;;20.90;99.90;;;;;;2623293;54;20177;-76
2021/09/25 16:59:27;;;;;;;4.97;4.57;;;20.80;99.90;;;;;;2627738;47;20173;-75
2021/09/25 17:01:56;;;;;;;5.45;4.93;;;20.80;99.90;;;;;;2621424;39;20592;-74
2021/09/25 17:04:26;;;;;;;6.60;4.60;;;20.70;99.90;;;;;;2619699;47;20157;-75
2021/09/25 17:06:57;;;;;;;7.93;4.68;;;20.50;99.90;;;;;;2619695;54;20267;-75
2021/09/25 17:11:53;;;;;;;4.15;3.75;;;20.20;99.90;;;;;;2630548;47;20157;-80
2021/09/25 17:14:22;;;;;;;4.43;4.03;;;20.10;99.90;;;;;;2630329;47;20126;-81
2021/09/25 17:16:51;;;;;;;5.90;4.30;;;20.00;99.90;;;;;;2630970;47;20904;-79
2021/09/25 17:19:20;;;;;;;5.07;4.28;;;19.90;99.90;;;;;;2631406;46;20761;-82
2021/09/25 17:21:49;;;;;;;4.75;4.35;;;19.80;99.90;;;;;;2631288;46;20146;-80
2021/09/25 17:24:21;;;;;;;4.72;3.85;;;19.80;99.90;;;;;;2631074;47;20169;-79
2021/09/25 17:26:50;;;;;;;4.63;4.22;;;19.60;99.90;;;;;;2631339;54;20133;-80
2021/09/25 17:29:18;;;;;;;4.43;4.03;;;19.60;99.90;;;;;;2631196;54;20152;-80
2021/09/25 17:31:47;;;;;;;5.13;4.00;;;19.70;99.90;;;;;;2631205;46;20966;-79
2021/09/25 17:34:17;;;;;;;9.55;5.10;;;19.70;99.90;;;;;;2631003;47;20150;-78
2021/09/25 17:36:46;;;;;;;5.90;5.00;;;19.50;99.90;;;;;;2631347;54;21103;-83
2021/09/25 17:39:15;;;;;;;5.55;5.03;;;19.30;99.90;;;;;;2631356;46;20157;-78
2021/09/25 17:41:46;;;;;;;5.30;4.80;;;19.40;99.90;;;;;;2631121;54;20153;-80
2021/09/25 17:44:15;;;;;;;6.43;4.68;;;19.50;99.90;;;;;;2630943;46;20157;-80
2021/09/25 17:46:44;;;;;;;5.57;5.07;;;19.30;99.90;;;;;;2630824;54;20158;-83
2021/09/25 17:49:13;;;;;;;5.63;5.13;;;19.20;99.90;;;;;;2631520;46;20181;-80
2021/09/25 17:51:43;;;;;;;5.32;4.82;;;19.10;99.90;;;;;;2631511;46;20138;-78
2021/09/25 17:54:12;;;;;;;6.38;4.47;;;19.10;99.90;;;;;;2630903;47;20150;-81
2021/09/25 17:56:41;;;;;;;5.45;4.97;;;19.00;99.90;;;;;;2630686;47;20168;-84
2021/09/25 17:59:13;;;;;;;4.93;4.53;;;19.00;99.90;;;;;;2631319;47;20150;-79
2021/09/25 18:01:42;;;;;;;7.57;5.72;;;18.90;99.90;;;;;;2631168;47;20153;-81
2021/09/25 18:04:15;;;;;;;6.05;5.18;;;18.90;99.90;;;;;;2630762;47;20137;-78
2021/09/25 18:06:43;;;;;;;5.72;5.10;;;18.90;99.90;;;;;;2631316;46;20863;-81
2021/09/25 18:09:12;;;;;;;4.75;4.35;;;18.80;99.90;;;;;;2630968;46;20157;-79
2021/09/25 18:11:42;;;;;;;5.55;5.03;;;18.70;99.90;;;;;;2630858;47;20157;-81
2021/09/25 18:14:13;;;;;;;6.65;6.05;;;18.70;99.90;;;;;;2630769;46;20214;-81
2021/09/25 18:16:46;;;;;;;5.97;5.20;;;18.70;99.90;;;;;;2630799;46;21023;-79
2021/09/25 18:19:15;;;;;;;7.03;6.43;;;18.80;99.90;;;;;;2631069;47;20149;-80
2021/09/25 18:21:44;;;;;;;7.63;5.57;;;18.70;99.90;;;;;;2631173;46;20153;-81
2021/09/25 18:24:13;;;;;;;7.53;6.80;;;18.60;99.90;;;;;;2630357;46;20143;-81
2021/09/25 18:26:42;;;;;;;8.77;6.68;;;18.60;99.90;;;;;;2630508;54;20161;-80
2021/09/25 18:29:14;;;;;;;6.45;5.85;;;18.50;99.90;;;;;;2631193;46;20126;-79
2021/09/25 18:31:43;;;;;;;7.72;6.05;;;18.60;99.90;;;;;;2630769;46;20172;-80
2021/09/25 18:34:12;;;;;;;7.40;5.97;;;18.50;99.90;;;;;;2630715;47;20125;-79
2021/09/25 18:36:40;;;;;;;6.90;5.10;;;18.50;99.90;;;;;;2631022;46;20157;-78
2021/09/25 18:39:09;;;;;;;12.50;5.65;;;18.30;99.90;;;;;;2630917;47;20141;-78
2021/09/25 18:41:38;;;;;;;8.93;5.43;;;18.20;99.90;;;;;;2631085;46;20208;-79
2021/09/25 18:44:07;;;;;;;10.70;5.63;;;18.20;99.90;;;;;;2630473;47;20176;-79
2021/09/25 18:46:38;;;;;;;12.35;7.53;;;18.20;99.90;;;;;;2636386;31;20802;-78
2021/09/25 18:49:07;;;;;;;7.72;5.43;;;18.30;99.90;;;;;;2630597;54;20153;-80
2021/09/25 18:51:37;;;;;;;7.80;5.53;;;18.10;99.90;;;;;;2630667;54;20213;-78
2021/09/25 18:54:07;;;;;;;6.65;6.00;;;18.00;99.90;;;;;;2630810;46;20137;-80
2021/09/25 18:56:36;;;;;;;7.20;6.25;;;17.90;99.90;;;;;;2630644;47;20201;-78
2021/09/25 18:59:05;;;;;;;7.40;5.95;;;18.00;99.90;;;;;;2630609;54;20134;-78
2021/09/25 19:01:33;;;;;;;10.32;5.80;;;17.90;99.90;;;;;;2632310;31;20839;-78
2021/09/25 19:04:05;;;;;;;8.48;5.82;;;17.80;99.90;;;;;;2630326;47;20217;-80
2021/09/25 19:06:37;;;;;;;7.30;6.60;;;17.90;99.90;;;;;;2631968;31;20794;-77
2021/09/25 19:09:07;;;;;;;11.23;5.93;;;18.10;99.90;;;;;;2631147;46;20133;-78
2021/09/25 19:11:37;;;;;;;9.55;6.60;;;17.90;99.90;;;;;;2635986;39;20766;-79
2021/09/25 19:14:07;;;;;;;9.10;6.82;;;17.70;99.90;;;;;;2632304;39;20787;-76
2021/09/25 19:16:39;;;;;;;12.70;10.13;;;17.70;99.90;;;;;;2630562;54;20161;-78
2021/09/25 19:19:11;;;;;;;11.13;9.88;;;17.60;99.90;;;;;;2630535;54;20145;-74
2021/09/25 19:21:40;;;;;;;16.23;12.82;;;17.50;99.90;;;;;;2630586;47;20145;-75
2021/09/25 19:24:09;;;;;;;18.02;15.82;;;17.50;99.90;;;;;;2630584;47;20829;-77
2021/09/25 19:26:38;;;;;;;14.15;12.63;;;17.60;99.90;;;;;;2630242;47;20940;-78
2021/09/25 19:29:07;;;;;;;14.98;10.25;;;17.50;99.90;;;;;;2630514;47;20129;-77
2021/09/25 19:31:36;;;;;;;7.95;6.05;;;17.50;99.90;;;;;;2630777;47;20244;-78
2021/09/25 19:34:11;;;;;;;8.50;7.80;;;17.50;99.90;;;;;;2631393;54;20808;-80
2021/09/25 19:36:42;;;;;;;8.73;7.60;;;17.40;99.90;;;;;;2631543;46;20126;-78
2021/09/25 19:39:11;;;;;;;6.88;6.18;;;17.50;99.90;;;;;;2631583;47;21006;-78
2021/09/25 19:41:40;;;;;;;7.30;6.55;;;17.50;99.90;;;;;;2631448;54;20172;-77
2021/09/25 19:44:09;;;;;;;10.23;8.60;;;17.50;99.90;;;;;;2631313;54;20153;-79
2021/09/25 19:46:40;;;;;;;8.52;7.72;;;17.40;99.90;;;;;;2631501;46;20130;-78
2021/09/25 19:49:15;;;;;;;7.43;6.72;;;17.40;99.90;;;;;;2631703;46;20172;-77
2021/09/25 19:51:45;;;;;;;9.13;8.23;;;17.40;99.90;;;;;;2631544;54;20820;-78
2021/09/25 19:54:17;;;;;;;11.10;9.90;;;17.30;99.90;;;;;;2631244;46;20141;-78
2021/09/25 19:56:46;;;;;;;13.93;12.57;;;17.40;99.90;;;;;;2631216;46;20990;-81